Time;durP1;ratioP1;P1;durP2;ratioP2;P2;SDS_P1;SDS_P2;PMS_P1;PMS_P2;Temp;Humidity;BMP_temperature;BMP_pressure;BME280_temperature;BME280_humidity;BME280_pressure;Samples;Min_cycle;Max_cycle;Signal;HPM_P1;HPM_P2
2023/06/03 00:02:01;;;;;;;0.70;0.70;;;;;;;15.87;86.07;96593.22;5063689;28;20052;-61
2023/06/03 00:04:31;;;;;;;0.70;0.70;;;;;;;15.86;86.52;96590.84;5063957;28;20064;-63
2023/06/03 00:06:58;;;;;;;0.70;0.70;;;;;;;15.87;86.32;96584.84;5063158;28;20057;-61
2023/06/03 00:09:25;;;;;;;0.60;0.60;;;;;;;15.75;85.78;96592.97;5063396;28;20053;-61
2023/06/03 00:11:52;;;;;;;0.70;0.70;;;;;;;15.20;87.09;96528.88;5063372;28;20069;-63
2023/06/03 00:14:19;;;;;;;0.70;0.70;;;;;;;15.74;85.84;96600.56;5061706;28;20434;-61
2023/06/03 00:16:46;;;;;;;0.70;0.70;;;;;;;15.78;85.80;96603.28;5063021;28;20048;-60
2023/06/03 00:19:14;;;;;;;0.60;0.60;;;;;;;15.75;85.91;96604.94;5078600;28;20056;-61
2023/06/03 00:21:45;;;;;;;0.70;0.70;;;;;;;15.65;86.91;96596.66;5062859;28;20158;-62
2023/06/03 00:24:22;;;;;;;0.70;0.70;;;;;;;15.75;86.79;96599.34;5066723;28;20730;-61
2023/06/03 00:26:50;;;;;;;0.70;0.70;;;;;;;15.62;86.76;96578.72;5066825;28;20080;-60
2023/06/03 00:29:18;;;;;;;0.70;0.70;;;;;;;15.78;86.58;96606.88;5066861;28;20439;-62
2023/06/03 00:31:45;;;;;;;0.70;0.70;;;;;;;15.72;86.30;96610.53;5066973;28;20048;-61
2023/06/03 00:34:12;;;;;;;0.70;0.70;;;;;;;15.51;86.19;96578.03;5066629;28;20056;-61
2023/06/03 00:36:39;;;;;;;0.70;0.70;;;;;;;15.69;86.06;96612.19;5066700;28;20127;-61
2023/06/03 00:39:07;;;;;;;0.70;0.70;;;;;;;15.63;86.34;96610.25;5066903;28;20071;-61
2023/06/03 00:41:33;;;;;;;0.60;0.60;;;;;;;15.52;86.29;96607.56;5066466;28;20051;-62
2023/06/03 00:44:00;;;;;;;0.70;0.70;;;;;;;15.40;86.49;96605.25;5066681;28;20052;-61
2023/06/03 00:46:27;;;;;;;0.70;0.70;;;;;;;15.59;85.54;96618.66;5066443;28;20067;-61
2023/06/03 00:48:54;;;;;;;0.60;0.60;;;;;;;15.58;84.90;96622.66;5075073;28;20110;-61
2023/06/03 00:51:22;;;;;;;0.70;0.70;;;;;;;15.52;85.69;96629.91;5086544;28;20052;-61
2023/06/03 00:53:49;;;;;;;0.60;0.60;;;;;;;15.43;86.72;96631.56;5085501;28;20074;-60
2023/06/03 00:56:16;;;;;;;0.60;0.60;;;;;;;15.47;86.89;96627.53;5085080;28;20048;-60
2023/06/03 00:58:44;;;;;;;0.60;0.60;;;;;;;14.88;87.05;96578.56;5086381;28;20071;-60
2023/06/03 01:01:12;;;;;;;0.60;0.60;;;;;;;15.28;86.79;96647.59;5086364;28;20135;-62
2023/06/03 01:03:42;;;;;;;0.63;0.63;;;;;;;15.29;87.46;96638.00;5086278;28;20048;-60
2023/06/03 01:06:26;;;;;;;0.70;0.70;;;;;;;15.18;87.34;96631.72;5086288;28;20079;-61
2023/06/03 01:08:56;;;;;;;;;;;;;;;15.34;87.64;96628.41;5087009;28;20051;-62
2023/06/03 01:11:41;;;;;;;0.70;0.70;;;;;;;15.00;89.29;96631.06;5086184;28;19924;-61
2023/06/03 01:14:43;;;;;;;0.57;0.57;;;;;;;15.04;89.25;96629.03;5086265;28;20054;-60
2023/06/03 01:17:12;;;;;;;0.60;0.60;;;;;;;14.88;89.48;96631.53;5088990;28;20060;-61
2023/06/03 01:19:49;;;;;;;0.65;0.65;;;;;;;15.07;88.61;96631.81;5086044;28;20044;-60
2023/06/03 01:22:20;;;;;;;0.60;0.60;;;;;;;15.01;88.79;96615.91;5086301;28;20044;-61
2023/06/03 01:24:50;;;;;;;0.60;0.60;;;;;;;15.09;88.80;96650.94;5086222;28;20055;-61
2023/06/03 01:27:18;;;;;;;0.70;0.70;;;;;;;15.06;88.38;96621.06;5086137;28;20060;-61
2023/06/03 01:29:46;;;;;;;0.60;0.60;;;;;;;15.05;88.30;96627.81;5086560;28;20071;-60
2023/06/03 01:32:15;;;;;;;0.60;0.60;;;;;;;15.08;88.36;96627.00;5086258;28;20472;-61
2023/06/03 01:34:43;;;;;;;0.70;0.70;;;;;;;15.01;88.68;96641.03;5085733;28;20075;-61
2023/06/03 01:37:10;;;;;;;0.60;0.60;;;;;;;15.07;87.67;96631.00;5084574;28;20056;-60
2023/06/03 01:39:42;;;;;;;0.63;0.63;;;;;;;15.08;87.79;96627.00;5084608;28;20044;-62
2023/06/03 01:42:11;;;;;;;0.70;0.70;;;;;;;15.02;86.64;96623.06;5084478;28;20050;-61
2023/06/03 01:44:38;;;;;;;0.60;0.60;;;;;;;14.91;88.70;96622.34;5083971;28;20086;-61
2023/06/03 01:47:06;;;;;;;0.60;0.60;;;;;;;14.85;89.10;96629.56;5085438;28;20142;-60
2023/06/03 01:49:33;;;;;;;0.68;0.68;;;;;;;14.79;89.20;96631.19;5085369;28;20059;-61
2023/06/03 01:52:00;;;;;;;0.70;0.70;;;;;;;14.82;88.51;96628.41;5085597;28;20056;-63
2023/06/03 01:54:28;;;;;;;0.60;0.60;;;;;;;14.38;88.68;96557.78;5085520;28;20048;-60
2023/06/03 01:56:56;;;;;;;0.70;0.70;;;;;;;14.84;89.46;96622.41;5083807;28;20060;-61
2023/06/03 01:59:24;;;;;;;0.60;0.60;;;;;;;14.87;89.97;96618.81;5085341;28;20048;-61
2023/06/03 02:01:52;;;;;;;0.70;0.70;;;;;;;14.89;90.72;96619.19;5085507;28;20147;-60
2023/06/03 02:04:19;;;;;;;0.60;0.60;;;;;;;14.83;90.89;96634.75;5084134;28;20120;-62
2023/06/03 02:06:51;;;;;;;0.60;0.60;;;;;;;14.91;91.02;96630.72;5085438;28;20565;-60
2023/06/03 02:09:20;;;;;;;0.60;0.60;;;;;;;14.84;90.76;96622.41;5085081;28;20048;-61
2023/06/03 02:11:54;;;;;;;0.63;0.63;;;;;;;14.80;90.61;96622.44;5085342;28;20513;-60
2023/06/03 02:14:20;;;;;;;0.60;0.60;;;;;;;14.84;88.73;96628.00;5083828;28;20048;-61
2023/06/03 02:16:48;;;;;;;0.68;0.68;;;;;;;14.55;89.79;96598.69;5078976;28;20356;-60
2023/06/03 02:19:17;;;;;;;0.60;0.60;;;;;;;14.69;89.16;96616.13;5064940;28;20092;-60
2023/06/03 02:21:44;;;;;;;0.60;0.60;;;;;;;14.67;89.64;96612.13;5063968;28;20056;-60
2023/06/03 02:24:14;;;;;;;0.60;0.60;;;;;;;14.52;89.99;96627.38;5062969;28;20055;-61
2023/06/03 02:26:52;;;;;;;0.60;0.60;;;;;;;14.57;89.63;96629.72;5063642;28;20118;-60
2023/06/03 02:29:22;;;;;;;0.60;0.60;;;;;;;14.43;90.85;96629.81;5063925;28;20041;-60
2023/06/03 02:31:50;;;;;;;0.52;0.52;;;;;;;14.54;90.03;96628.53;5062395;28;20970;-61
2023/06/03 02:34:17;;;;;;;0.70;0.70;;;;;;;14.57;90.14;96638.09;5064632;28;20072;-61
2023/06/03 02:36:45;;;;;;;0.60;0.60;;;;;;;14.65;89.36;96653.59;5079491;28;20078;-61
2023/06/03 02:39:13;;;;;;;0.60;0.60;;;;;;;14.50;88.79;96632.53;5078300;28;20061;-61
2023/06/03 02:41:41;;;;;;;0.60;0.60;;;;;;;14.52;89.58;96638.50;5064482;28;20053;-61
2023/06/03 02:44:10;;;;;;;0.60;0.60;;;;;;;14.49;88.61;96633.75;5079782;28;20049;-60
2023/06/03 02:46:37;;;;;;;0.60;0.60;;;;;;;14.55;88.20;96630.16;5063114;28;20060;-62
2023/06/03 02:49:05;;;;;;;0.52;0.52;;;;;;;14.55;89.43;96643.28;5073335;28;20084;-60
2023/06/03 02:51:32;;;;;;;0.60;0.60;;;;;;;14.16;89.33;96582.16;5084203;28;20090;-63
2023/06/03 02:53:59;;;;;;;0.60;0.60;;;;;;;14.28;90.75;96631.84;5084281;28;20126;-62
2023/06/03 02:56:26;;;;;;;0.60;0.60;;;;;;;14.24;91.43;96641.41;5084278;28;20044;-62
2023/06/03 02:58:54;;;;;;;0.60;0.60;;;;;;;14.39;90.42;96640.16;5084429;28;20419;-62
2023/06/03 03:01:22;;;;;;;0.65;0.65;;;;;;;14.42;90.71;96642.13;5083935;28;20044;-62
2023/06/03 03:03:49;;;;;;;0.60;0.60;;;;;;;14.55;90.03;96648.84;5084505;28;20048;-61
2023/06/03 03:06:19;;;;;;;0.60;0.60;;;;;;;14.63;90.37;96639.25;5083865;28;20064;-62
2023/06/03 03:08:50;;;;;;;0.60;0.60;;;;;;;14.69;89.64;96638.44;5084228;28;20135;-63
2023/06/03 03:11:17;;;;;;;0.60;0.60;;;;;;;14.73;88.48;96630.06;5082387;28;20430;-61
2023/06/03 03:13:45;;;;;;;0.60;0.60;;;;;;;14.13;88.54;96537.59;5084835;28;20060;-60
2023/06/03 03:16:12;;;;;;;0.65;0.65;;;;;;;14.75;88.72;96630.41;5083429;28;20052;-61
2023/06/03 03:18:40;;;;;;;0.60;0.60;;;;;;;14.87;86.98;96632.75;5063831;28;20049;-61
2023/06/03 03:21:07;;;;;;;0.60;0.60;;;;;;;14.90;87.21;96629.13;5062047;28;20055;-60
2023/06/03 03:23:34;;;;;;;0.70;0.70;;;;;;;15.02;86.43;96623.88;5064108;28;20056;-61
2023/06/03 03:26:01;;;;;;;0.60;0.60;;;;;;;14.74;87.47;96629.66;5063177;28;20061;-60
2023/06/03 03:28:28;;;;;;;0.60;0.60;;;;;;;14.76;86.67;96604.13;5037419;28;20044;-62
2023/06/03 03:30:56;;;;;;;0.70;0.70;;;;;;;15.07;84.99;96653.31;5043066;28;20055;-62
2023/06/03 03:33:23;;;;;;;0.68;0.68;;;;;;;15.14;85.11;96642.13;5043665;28;20063;-62
2023/06/03 03:35:50;;;;;;;0.65;0.65;;;;;;;15.33;84.35;96644.38;5042064;28;20147;-61
2023/06/03 03:38:17;;;;;;;0.70;0.70;;;;;;;14.83;84.48;96587.34;5043601;28;20068;-62
2023/06/03 03:40:44;;;;;;;0.60;0.60;;;;;;;15.43;84.61;96660.25;5043575;28;20500;-61
2023/06/03 03:43:19;;;;;;;0.70;0.70;;;;;;;15.08;83.81;96576.78;5043945;28;20053;-61
2023/06/03 03:45:46;;;;;;;0.60;0.60;;;;;;;15.61;83.53;96627.41;5043000;28;20068;-61
2023/06/03 03:48:15;;;;;;;0.70;0.70;;;;;;;15.83;82.73;96645.53;5043325;28;20083;-61
2023/06/03 03:50:45;;;;;;;0.70;0.70;;;;;;;15.85;81.91;96643.13;5043553;28;20131;-61
2023/06/03 03:53:15;;;;;;;0.70;0.70;;;;;;;15.94;81.48;96651.00;5043612;28;20055;-62
2023/06/03 03:55:44;;;;;;;0.70;0.70;;;;;;;15.92;82.66;96654.22;5043239;28;20055;-61
2023/06/03 03:58:40;;;;;;;0.70;0.70;;;;;;;16.09;81.82;96636.47;5045966;28;20077;-61
2023/06/03 04:01:23;;;;;;;0.70;0.70;;;;;;;16.24;80.04;96639.91;5046849;28;20077;-61
2023/06/03 04:03:57;;;;;;;0.70;0.70;;;;;;;16.35;79.13;96638.59;5047933;28;20063;-60
2023/06/03 04:06:24;;;;;;;;;;;;;;;16.38;79.00;96640.53;5047906;28;20114;-61
2023/06/03 04:08:51;;;;;;;0.70;0.70;;;;;;;16.26;79.74;96641.09;5046448;28;20322;-61
2023/06/03 04:11:26;;;;;;;0.70;0.70;;;;;;;16.44;78.89;96640.84;5045433;28;20063;-61
2023/06/03 04:13:54;;;;;;;0.70;0.70;;;;;;;16.61;78.87;96637.88;5047506;28;20467;-61
2023/06/03 04:16:51;;;;;;;0.70;0.70;;;;;;;16.51;80.42;96636.03;5046728;28;20056;-61
2023/06/03 04:19:32;;;;;;;0.70;0.70;;;;;;;16.66;80.40;96641.44;5043438;28;20140;-62
2023/06/03 04:22:00;;;;;;;0.70;0.70;;;;;;;16.81;79.50;96642.81;5047065;28;20061;-61
2023/06/03 04:24:28;;;;;;;0.70;0.70;;;;;;;16.73;78.50;96590.97;5045540;28;20537;-60
2023/06/03 04:26:56;;;;;;;0.73;0.73;;;;;;;17.31;76.77;96638.09;5046686;28;20053;-60
2023/06/03 04:29:23;;;;;;;0.80;0.80;;;;;;;17.54;75.11;96641.72;5045670;28;20057;-61
2023/06/03 04:31:50;;;;;;;0.80;0.80;;;;;;;17.66;75.20;96645.91;5046632;28;20055;-59
2023/06/03 04:34:16;;;;;;;0.70;0.70;;;;;;;17.80;74.09;96654.88;5046941;28;20059;-61
2023/06/03 04:36:43;;;;;;;0.70;0.70;;;;;;;17.92;74.40;96645.06;5046519;28;20056;-61
2023/06/03 04:39:10;;;;;;;0.70;0.70;;;;;;;18.21;73.65;96646.09;5046996;28;20106;-60
2023/06/03 04:41:38;;;;;;;0.80;0.80;;;;;;;18.51;72.07;96645.94;5046392;28;20049;-60
2023/06/03 04:44:05;;;;;;;0.80;0.80;;;;;;;18.61;71.60;96652.56;5046924;28;20439;-60
2023/06/03 04:46:33;;;;;;;0.80;0.80;;;;;;;18.44;72.45;96615.25;5046433;28;20416;-61
2023/06/03 04:49:01;;;;;;;0.93;0.93;;;;;;;18.89;71.94;96644.31;5046361;28;20056;-63
2023/06/03 04:51:33;;;;;;;0.80;0.80;;;;;;;18.93;70.61;96614.19;5046560;28;20467;-62
2023/06/03 04:54:01;;;;;;;0.80;0.80;;;;;;;19.45;68.97;96645.06;5046640;28;20067;-60
2023/06/03 04:56:31;;;;;;;0.98;0.98;;;;;;;19.31;67.38;96590.03;5046056;28;20412;-60
2023/06/03 04:59:00;;;;;;;0.90;0.90;;;;;;;19.78;67.32;96646.66;5046002;28;20049;-61
2023/06/03 05:01:27;;;;;;;0.88;0.88;;;;;;;20.07;67.21;96649.53;5046200;28;20052;-60
2023/06/03 05:03:55;;;;;;;1.00;1.00;;;;;;;20.32;66.60;96647.66;5044991;28;20041;-60
2023/06/03 05:06:23;;;;;;;1.00;1.00;;;;;;;20.33;65.17;96597.78;5044779;28;20060;-60
2023/06/03 05:08:51;;;;;;;0.80;0.80;;;;;;;20.82;64.72;96647.03;5044145;28;20059;-61
2023/06/03 05:11:18;;;;;;;0.93;0.93;;;;;;;21.13;63.70;96644.53;5045766;28;20494;-61
2023/06/03 05:13:45;;;;;;;0.88;0.88;;;;;;;21.43;63.22;96624.25;5045657;28;20051;-61
2023/06/03 05:16:12;;;;;;;0.90;0.90;;;;;;;21.31;61.28;96600.47;5044715;28;20504;-61
2023/06/03 05:18:39;;;;;;;0.90;0.90;;;;;;;21.74;61.64;96645.75;5046310;28;20053;-60
2023/06/03 05:21:06;;;;;;;1.00;1.00;;;;;;;21.72;61.40;96641.81;5045657;28;20048;-60
2023/06/03 05:23:33;;;;;;;0.88;0.88;;;;;;;21.99;61.71;96645.75;5045921;28;20049;-60
2023/06/03 05:25:59;;;;;;;0.90;0.90;;;;;;;22.37;61.04;96643.59;5045493;28;20435;-61
2023/06/03 05:28:26;;;;;;;1.00;1.00;;;;;;;22.75;60.19;96639.81;5045791;28;20159;-60
2023/06/03 05:30:53;;;;;;;0.90;0.90;;;;;;;22.80;59.44;96608.16;5046129;28;20053;-62
2023/06/03 05:33:27;;;;;;;1.10;1.10;;;;;;;23.22;58.66;96640.47;5045845;28;20076;-62
2023/06/03 05:35:54;;;;;;;1.00;1.00;;;;;;;23.40;56.84;96649.03;5045797;28;20057;-61
2023/06/03 05:38:21;;;;;;;1.00;1.00;;;;;;;23.49;56.92;96637.78;5045813;28;20059;-60
2023/06/03 05:40:49;;;;;;;0.88;0.88;;;;;;;23.50;56.41;96639.34;5045556;28;20417;-60
2023/06/03 05:43:16;;;;;;;1.00;1.00;;;;;;;23.56;55.67;96648.81;5043854;28;20511;-60
2023/06/03 05:45:43;;;;;;;1.10;1.10;;;;;;;23.73;55.33;96644.47;5045253;28;20459;-61
2023/06/03 05:48:10;;;;;;;1.10;1.10;;;;;;;23.03;56.91;96576.63;5044795;28;20483;-61
2023/06/03 05:50:39;;;;;;;1.05;1.05;;;;;;;23.55;57.89;96636.69;5045186;28;20052;-60
2023/06/03 05:53:05;;;;;;;1.10;1.10;;;;;;;23.53;58.36;96636.38;5045364;28;20053;-61
2023/06/03 05:55:32;;;;;;;1.20;1.20;;;;;;;22.92;60.48;96581.91;5045111;28;20057;-59
2023/06/03 05:57:59;;;;;;;1.00;1.00;;;;;;;23.11;60.80;96623.13;5043579;28;20535;-60
2023/06/03 06:00:27;;;;;;;1.00;1.00;;;;;;;23.76;59.66;96640.69;5044005;28;20474;-60
2023/06/03 06:02:55;;;;;;;1.20;1.20;;;;;;;24.59;58.06;96641.19;5044833;28;20136;-62
2023/06/03 06:05:22;;;;;;;1.20;1.20;;;;;;;25.01;55.10;96633.59;5044960;28;20110;-61
2023/06/03 06:07:48;;;;;;;1.27;1.27;;;;;;;25.27;53.65;96605.66;5043065;28;20052;-61
2023/06/03 06:10:15;;;;;;;1.20;1.20;;;;;;;25.74;53.65;96600.13;5044681;28;20136;-60
2023/06/03 06:12:41;;;;;;;1.40;1.40;;;;;;;26.13;53.63;96643.63;5045347;28;20107;-61
2023/06/03 06:15:09;;;;;;;1.60;1.60;;;;;;;25.58;52.47;96551.47;5044745;28;20339;-60
2023/06/03 06:17:37;;;;;;;1.40;1.40;;;;;;;26.46;51.50;96641.50;5043255;28;20048;-60
2023/06/03 06:20:05;;;;;;;1.50;1.50;;;;;;;27.01;48.96;96639.78;5043854;28;20060;-61
2023/06/03 06:22:32;;;;;;;1.33;1.33;;;;;;;27.31;47.71;96632.84;5045389;28;20063;-61
2023/06/03 06:24:59;;;;;;;1.60;1.60;;;;;;;27.52;47.07;96628.78;5044925;28;20164;-60
2023/06/03 06:27:29;;;;;;;1.40;1.40;;;;;;;27.31;47.19;96635.69;5044981;28;20049;-60
2023/06/03 06:29:56;;;;;;;1.50;1.50;;;;;;;26.86;47.75;96638.97;5044991;28;20495;-61
2023/06/03 06:32:25;;;;;;;1.38;1.38;;;;;;;26.85;46.90;96631.72;5044607;28;20725;-60
2023/06/03 06:34:55;;;;;;;1.50;1.50;;;;;;;26.85;46.89;96643.09;5042913;28;20128;-62
2023/06/03 06:37:24;;;;;;;1.70;1.70;;;;;;;26.64;47.15;96627.16;5044541;28;20056;-61
2023/06/03 06:39:52;;;;;;;1.63;1.63;;;;;;;26.22;47.72;96592.44;5042687;28;20511;-62
2023/06/03 06:42:21;;;;;;;1.20;1.20;;;;;;;26.16;48.40;96631.28;5044397;28;20110;-61
2023/06/03 06:44:50;;;;;;;1.60;1.60;;;;;;;26.16;48.52;96631.28;5044185;28;20047;-61
2023/06/03 06:47:24;;;;;;;1.42;1.42;;;;;;;26.03;48.45;96639.25;5043307;28;20424;-62
2023/06/03 06:49:52;;;;;;;1.48;1.48;;;;;;;26.10;48.99;96638.88;5042847;28;20052;-61
2023/06/03 06:52:21;;;;;;;1.48;1.48;;;;;;;25.95;50.34;96655.03;5042610;28;20053;-63
2023/06/03 06:54:49;;;;;;;1.40;1.40;;;;;;;25.71;51.38;96652.16;5044137;28;20144;-62
2023/06/03 06:57:21;;;;;;;1.40;1.40;;;;;;;25.55;52.00;96631.88;5044100;28;20052;-62
2023/06/03 06:59:51;;;;;;;1.38;1.38;;;;;;;25.25;52.43;96625.19;5042757;28;20132;-62
2023/06/03 07:02:19;;;;;;;1.40;1.40;;;;;;;25.44;52.72;96614.59;5044063;28;20052;-62
2023/06/03 07:04:50;;;;;;;1.27;1.27;;;;;;;26.00;50.04;96665.78;5043720;28;20049;-61
2023/06/03 07:07:17;;;;;;;1.40;1.40;;;;;;;26.48;49.11;96653.94;5043959;28;20480;-61
2023/06/03 07:09:44;;;;;;;1.40;1.40;;;;;;;26.20;50.67;96671.63;5043956;28;20080;-62
2023/06/03 07:12:10;;;;;;;1.50;1.50;;;;;;;26.19;49.22;96658.72;5044017;28;20053;-60
2023/06/03 07:14:38;;;;;;;1.50;1.50;;;;;;;26.71;48.30;96672.25;5044082;28;20059;-63
2023/06/03 07:17:05;;;;;;;1.40;1.40;;;;;;;27.22;46.29;96661.34;5043837;28;20060;-61
2023/06/03 07:19:37;;;;;;;1.52;1.52;;;;;;;27.03;45.42;96586.03;5042100;28;20087;-62
2023/06/03 07:22:05;;;;;;;1.40;1.40;;;;;;;27.56;45.23;96645.69;5043738;28;20049;-61
2023/06/03 07:24:35;;;;;;;1.55;1.55;;;;;;;27.56;46.70;96674.94;5043255;28;21004;-61
2023/06/03 07:27:06;;;;;;;1.55;1.55;;;;;;;27.75;47.57;96659.22;5042075;28;20045;-62
2023/06/03 07:29:40;;;;;;;1.63;1.63;;;;;;;27.23;47.10;96656.44;5043362;28;20706;-61
2023/06/03 07:32:07;;;;;;;1.70;1.70;;;;;;;27.82;46.14;96664.47;5034886;28;20049;-61
2023/06/03 07:34:36;;;;;;;1.67;1.67;;;;;;;27.90;44.93;96662.81;5063317;28;20084;-59
2023/06/03 07:37:11;;;;;;;1.48;1.48;;;;;;;27.96;46.04;96675.09;5063563;28;20568;-60
2023/06/03 07:39:38;;;;;;;1.63;1.63;;;;;;;27.70;45.90;96674.13;5063254;28;20114;-62
2023/06/03 07:42:15;;;;;;;1.67;1.67;;;;;;;27.43;46.38;96671.59;5063680;28;20099;-61
2023/06/03 07:44:44;;;;;;;1.80;1.80;;;;;;;27.84;46.08;96684.72;5078351;28;20139;-60
2023/06/03 07:47:13;;;;;;;1.80;1.80;;;;;;;28.09;44.74;96641.38;5063372;28;20048;-61
2023/06/03 07:49:43;;;;;;;1.60;1.60;;;;;;;27.93;44.60;96659.00;5070384;28;20133;-60
2023/06/03 07:52:18;;;;;;;1.92;1.92;;;;;;;27.83;45.94;96668.13;5083760;28;20056;-60
2023/06/03 07:54:45;;;;;;;1.83;1.83;;;;;;;28.76;44.58;96685.03;5083240;28;20052;-60
2023/06/03 07:57:13;;;;;;;1.80;1.80;;;;;;;29.02;43.63;96668.78;5081682;28;20051;-61
2023/06/03 07:59:55;;;;;;;1.63;1.63;;;;;;;28.78;43.79;96688.19;5083399;28;20066;-61
2023/06/03 08:02:23;;;;;;;1.90;1.90;;;;;;;28.62;45.33;96700.16;5083632;28;20052;-60
2023/06/03 08:04:53;;;;;;;1.70;1.70;;;;;;;27.84;45.73;96698.94;5083267;28;20044;-62
2023/06/03 08:07:20;;;;;;;1.70;1.70;;;;;;;28.60;44.53;96705.56;5083310;28;20421;-60
2023/06/03 08:09:47;;;;;;;1.75;1.75;;;;;;;28.57;45.06;96672.34;5083885;28;20365;-60
2023/06/03 08:12:14;;;;;;;1.60;1.60;;;;;;;28.78;43.56;96705.28;5083749;28;20056;-60
2023/06/03 08:14:41;;;;;;;1.90;1.90;;;;;;;28.25;44.79;96713.34;5083188;28;20054;-61
2023/06/03 08:17:11;;;;;;;1.42;1.42;;;;;;;27.72;46.88;96705.75;5083200;28;20147;-62
2023/06/03 08:19:39;;;;;;;1.70;1.70;;;;;;;28.15;46.44;96699.19;5083203;28;20048;-60
2023/06/03 08:22:24;;;;;;;1.70;1.70;;;;;;;27.94;46.12;96705.34;5083536;28;20407;-60
2023/06/03 08:24:51;;;;;;;1.83;1.83;;;;;;;27.71;46.47;96704.16;5083270;28;20056;-61
2023/06/03 08:27:17;;;;;;;1.50;1.50;;;;;;;26.32;47.86;96713.25;5083033;28;20143;-60
2023/06/03 08:29:45;;;;;;;1.30;1.30;;;;;;;25.76;49.93;96705.44;5083134;28;20052;-61
2023/06/03 08:32:12;;;;;;;1.30;1.30;;;;;;;25.98;49.21;96716.53;5081915;28;20052;-61
2023/06/03 08:34:38;;;;;;;1.38;1.38;;;;;;;25.63;49.29;96719.03;5083371;28;20052;-59
2023/06/03 08:37:06;;;;;;;1.30;1.30;;;;;;;25.27;50.73;96722.72;5082564;28;20116;-61
2023/06/03 08:39:32;;;;;;;1.23;1.23;;;;;;;24.91;51.07;96724.78;5081677;28;20545;-60
2023/06/03 08:42:06;;;;;;;1.23;1.23;;;;;;;24.88;51.05;96726.50;5082763;28;20131;-60
2023/06/03 08:44:48;;;;;;;1.25;1.25;;;;;;;25.43;50.90;96732.16;5085858;28;20121;-61
2023/06/03 08:47:32;;;;;;;1.30;1.30;;;;;;;25.58;52.39;96721.69;5086317;28;20050;-61
2023/06/03 08:50:10;;;;;;;;;;;;;;;25.71;51.25;96736.50;5086666;28;20673;-59
2023/06/03 08:52:39;;;;;;;1.10;1.10;;;;;;;24.47;54.75;96724.22;5085536;28;20291;-63
2023/06/03 08:55:06;;;;;;;1.40;1.40;;;;;;;24.64;55.75;96742.53;5073788;28;20059;-61
2023/06/03 08:57:38;;;;;;;1.20;1.20;;;;;;;24.94;55.55;96744.44;5066448;28;20056;-61
2023/06/03 09:00:06;;;;;;;1.20;1.20;;;;;;;24.49;55.72;96752.09;5066157;28;20052;-60
2023/06/03 09:02:34;;;;;;;1.10;1.10;;;;;;;24.49;55.15;96744.38;5081567;28;20044;-60
2023/06/03 09:05:03;;;;;;;1.13;1.13;;;;;;;24.54;54.52;96692.78;5065758;28;20080;-60
2023/06/03 09:07:31;;;;;;;1.10;1.10;;;;;;;25.05;54.33;96750.44;5066236;28;20110;-62
2023/06/03 09:10:00;;;;;;;1.08;1.08;;;;;;;24.84;53.77;96720.22;5081474;28;20507;-62
2023/06/03 09:12:27;;;;;;;1.15;1.15;;;;;;;25.17;52.75;96748.69;5081139;28;20412;-61
2023/06/03 09:14:57;;;;;;;1.30;1.30;;;;;;;25.18;53.06;96742.56;5066026;28;20049;-61
2023/06/03 09:17:24;;;;;;;1.10;1.10;;;;;;;25.39;53.83;96740.06;5065458;28;20467;-61
2023/06/03 09:19:53;;;;;;;1.20;1.20;;;;;;;24.80;53.86;96745.06;5066115;28;20056;-61
2023/06/03 09:22:21;;;;;;;1.27;1.27;;;;;;;25.63;53.71;96740.94;5065714;28;20056;-62
2023/06/03 09:24:48;;;;;;;1.30;1.30;;;;;;;26.34;51.24;96739.09;5066075;28;20518;-60
2023/06/03 09:27:15;;;;;;;1.50;1.50;;;;;;;26.45;50.78;96699.56;5080679;28;20052;-61
2023/06/03 09:29:42;;;;;;;1.42;1.42;;;;;;;27.07;49.32;96739.41;5065633;28;20049;-62
2023/06/03 09:32:08;;;;;;;1.50;1.50;;;;;;;27.00;49.13;96705.66;5065781;28;20282;-61
2023/06/03 09:34:36;;;;;;;1.33;1.33;;;;;;;27.61;48.17;96734.03;5065920;28;20075;-62
2023/06/03 09:37:08;;;;;;;1.70;1.70;;;;;;;27.93;47.80;96733.03;5081047;28;20067;-61
2023/06/03 09:39:36;;;;;;;1.58;1.58;;;;;;;28.03;48.31;96719.47;5065587;28;20052;-61
2023/06/03 09:42:03;;;;;;;1.65;1.65;;;;;;;28.45;46.90;96727.63;5065171;28;20048;-62
2023/06/03 09:44:46;;;;;;;1.65;1.65;;;;;;;26.92;48.28;96727.97;5065733;28;20585;-62
2023/06/03 09:47:12;;;;;;;1.60;1.60;;;;;;;27.60;46.49;96726.75;5065246;28;20056;-62
2023/06/03 09:49:39;;;;;;;1.70;1.70;;;;;;;28.32;44.35;96724.31;5084446;28;20089;-62
2023/06/03 09:52:11;;;;;;;1.75;1.75;;;;;;;28.39;44.14;96729.63;5085278;28;20059;-61
2023/06/03 09:54:37;;;;;;;1.60;1.60;;;;;;;26.56;44.63;96728.22;5085077;28;20151;-61
2023/06/03 09:57:12;;;;;;;1.50;1.50;;;;;;;26.82;46.33;96712.28;5085352;28;20453;-62
2023/06/03 09:59:43;;;;;;;1.48;1.48;;;;;;;27.46;43.64;96726.72;5085591;28;20052;-62
2023/06/03 10:02:13;;;;;;;1.50;1.50;;;;;;;28.41;43.23;96724.19;5085364;28;20055;-63
2023/06/03 10:04:44;;;;;;;1.65;1.65;;;;;;;29.07;41.51;96725.16;5085221;28;20050;-62
2023/06/03 10:07:13;;;;;;;1.80;1.80;;;;;;;28.42;43.42;96665.91;5084624;28;20530;-60
2023/06/03 10:09:45;;;;;;;1.70;1.70;;;;;;;28.34;43.24;96727.47;5083832;28;20127;-60
2023/06/03 10:12:27;;;;;;;1.50;1.50;;;;;;;28.70;43.06;96724.91;5085019;28;20105;-60
2023/06/03 10:14:56;;;;;;;1.60;1.60;;;;;;;28.95;42.88;96714.84;5083930;28;20068;-60
2023/06/03 10:17:23;;;;;;;1.70;1.70;;;;;;;28.37;42.07;96663.78;5084391;28;20507;-60
2023/06/03 10:19:50;;;;;;;1.90;1.90;;;;;;;28.21;42.88;96692.81;5084875;28;20052;-62
2023/06/03 10:22:18;;;;;;;1.65;1.65;;;;;;;27.36;43.70;96689.03;5083723;28;20054;-61
2023/06/03 10:24:47;;;;;;;1.60;1.60;;;;;;;27.81;43.33;96728.41;5083984;28;20129;-61
2023/06/03 10:27:16;;;;;;;1.45;1.45;;;;;;;27.34;44.37;96731.44;5083449;28;20431;-61
2023/06/03 10:29:43;;;;;;;1.50;1.50;;;;;;;27.61;44.83;96768.19;5083491;28;20125;-61
2023/06/03 10:32:14;;;;;;;1.60;1.60;;;;;;;25.95;45.75;96481.88;5081842;28;20048;-61
2023/06/03 10:34:44;;;;;;;1.65;1.65;;;;;;;26.56;47.22;96728.22;5084676;28;20055;-61
2023/06/03 10:37:14;;;;;;;1.50;1.50;;;;;;;27.20;46.73;96735.03;5084615;28;20463;-60
2023/06/03 10:39:44;;;;;;;1.60;1.60;;;;;;;26.95;47.22;96743.31;5084589;28;20052;-63
2023/06/03 10:42:12;;;;;;;1.63;1.63;;;;;;;27.48;46.53;96742.06;5083941;28;20084;-61
2023/06/03 10:44:40;;;;;;;1.63;1.63;;;;;;;27.42;45.82;96743.22;5084784;28;20087;-61
2023/06/03 10:47:31;;;;;;;1.40;1.40;;;;;;;27.67;46.23;96737.75;5084329;28;20059;-61
2023/06/03 10:50:04;;;;;;;1.58;1.58;;;;;;;27.32;46.00;96734.00;5084175;28;20492;-61
2023/06/03 10:52:43;;;;;;;;;;;;;;;27.39;44.97;96736.47;5084765;28;20225;-62
2023/06/03 10:55:38;;;;;;;1.45;1.45;;;;;;;26.51;46.56;96737.41;5083071;28;19928;-61
2023/06/03 10:58:11;;;;;;;1.40;1.40;;;;;;;26.38;46.94;96739.72;5082510;28;20051;-61
2023/06/03 11:01:00;;;;;;;1.37;1.37;;;;;;;26.66;46.71;96735.47;5084145;28;20107;-63
2023/06/03 11:03:31;;;;;;;1.50;1.50;;;;;;;27.30;45.19;96730.84;5083632;28;20051;-63
2023/06/03 11:06:28;;;;;;;1.40;1.40;;;;;;;27.97;45.08;96730.00;5081991;28;20056;-60
2023/06/03 11:09:05;;;;;;;1.42;1.42;;;;;;;28.77;42.97;96732.25;5087098;28;20553;-60
2023/06/03 11:11:41;;;;;;;1.70;1.70;;;;;;;29.50;41.95;96726.91;5083989;28;20380;-60
2023/06/03 11:14:10;;;;;;;1.90;1.90;;;;;;;27.49;44.72;96720.84;5082639;28;20044;-62
2023/06/03 11:16:58;;;;;;;1.50;1.50;;;;;;;27.17;45.91;96726.69;5083675;28;20051;-61
2023/06/03 11:19:28;;;;;;;1.70;1.70;;;;;;;28.21;45.66;96727.78;5083966;28;20083;-61
2023/06/03 11:21:55;;;;;;;1.48;1.48;;;;;;;28.12;45.06;96673.78;5083677;28;20079;-60
2023/06/03 11:24:37;;;;;;;1.40;1.40;;;;;;;28.94;43.37;96718.97;5084146;28;20078;-61
2023/06/03 11:27:10;;;;;;;1.75;1.75;;;;;;;29.16;42.97;96724.97;5084026;28;20123;-60
2023/06/03 11:29:51;;;;;;;2.08;2.08;;;;;;;29.74;41.41;96718.06;5084030;28;20503;-61
2023/06/03 11:32:18;;;;;;;2.25;2.25;;;;;;;29.98;41.51;96718.56;5082419;28;20052;-60
2023/06/03 11:34:46;;;;;;;1.70;1.70;;;;;;;30.37;41.24;96720.44;5084143;28;20109;-59
2023/06/03 11:37:15;;;;;;;1.60;1.60;;;;;;;30.94;40.48;96706.75;5083180;28;20136;-60
2023/06/03 11:40:08;;;;;;;1.92;1.92;;;;;;;30.77;40.74;96708.75;5078726;28;20137;-60
2023/06/03 11:42:46;;;;;;;1.58;1.58;;;;;;;29.50;43.42;96710.56;5078842;28;20053;-60
2023/06/03 11:45:16;;;;;;;1.77;1.77;;;;;;;30.30;42.28;96715.22;5063130;28;20048;-60
2023/06/03 11:47:54;;;;;;;1.90;1.90;;;;;;;30.75;42.60;96705.59;5063493;28;20048;-61